Yellow Rock, Kentucky
Current Conditions -  °F | °C
As of 11:08 AM on Friday 31 Oct 2014 (Local Time) from KJKL Reporting Station
Light Rain Light Rain  
Wind Chill: 41°   Ceiling: 3300
Heat Index: 41°   Visibility: 3mi
Dew Point: 39°   Wind: 0mph
Humidity: 93%   Direction: NA
Pressure: 29.97"   Gusts: NA
Location:  37.5908°N, 83.7186°W
Report Text: KJKL 311508Z AUTO 00000KT 3SM -RA BR FEW002 FEW021 OVC033 05/04 A2997 RMK AO2 P0000 T00500039
Loading
Personal Weather Stations






























Interactive Weather Map
Tropical Storm Tracking
New forecast layout! Learn more

10-Day Weather Forecast

Advertisements
Track Severe Weather on mobile